createdAt,value
2023-06-29T00:01:14.143Z,26.40
2023-06-29T00:03:44.450Z,26.40
2023-06-29T00:06:14.477Z,26.40
2023-06-29T00:08:45.505Z,26.40
2023-06-29T00:11:15.906Z,26.40
2023-06-29T00:13:45.824Z,26.50
2023-06-29T00:16:15.652Z,26.40
2023-06-29T00:18:46.571Z,26.40
2023-06-29T00:21:16.302Z,26.40
2023-06-29T00:23:48.999Z,26.50
2023-06-29T00:26:19.316Z,26.60
2023-06-29T00:28:49.892Z,26.60
2023-06-29T00:31:21.957Z,26.70
2023-06-29T00:33:54.838Z,26.70
2023-06-29T00:36:25.103Z,26.70
2023-06-29T00:38:56.299Z,26.80
2023-06-29T00:41:26.779Z,26.90
2023-06-29T00:43:58.291Z,27.00
2023-06-29T00:46:28.852Z,26.90
2023-06-29T00:49:01.279Z,26.90
2023-06-29T00:51:33.841Z,27.00
2023-06-29T00:54:04.108Z,26.90
2023-06-29T00:56:38.099Z,26.90
2023-06-29T00:59:08.225Z,26.90
2023-06-29T01:01:40.653Z,26.90
2023-06-29T01:04:12.063Z,27.00
2023-06-29T01:06:47.951Z,27.00
2023-06-29T01:09:18.666Z,27.00
2023-06-29T01:11:48.864Z,27.10
2023-06-29T01:14:18.869Z,27.20
2023-06-29T01:16:50.187Z,27.20
2023-06-29T01:19:26.241Z,27.20
2023-06-29T01:22:05.736Z,27.30
2023-06-29T01:24:44.035Z,27.30
2023-06-29T01:27:15.674Z,27.40
2023-06-29T01:29:46.163Z,27.40
2023-06-29T01:32:16.779Z,27.50
2023-06-29T01:34:47.022Z,27.50
2023-06-29T01:37:22.010Z,27.70
2023-06-29T01:40:12.658Z,27.90
2023-06-29T01:42:44.845Z,27.90
2023-06-29T01:45:15.600Z,27.90
2023-06-29T01:47:45.482Z,27.90
2023-06-29T01:50:17.317Z,27.90
2023-06-29T01:52:47.859Z,27.90
2023-06-29T01:55:17.653Z,28.00
2023-06-29T01:57:47.671Z,28.20
2023-06-29T02:00:17.796Z,28.30
2023-06-29T02:02:48.515Z,28.50
2023-06-29T02:05:18.381Z,28.50
2023-06-29T02:07:48.821Z,28.60
2023-06-29T02:10:19.158Z,28.70
2023-06-29T02:12:49.120Z,28.70
2023-06-29T02:15:19.063Z,28.70
2023-06-29T02:17:48.842Z,28.70
2023-06-29T02:20:20.054Z,28.70
2023-06-29T02:22:50.466Z,28.70
2023-06-29T02:25:20.422Z,28.70
2023-06-29T02:27:50.574Z,28.70
2023-06-29T02:30:20.265Z,28.70
2023-06-29T02:32:50.325Z,28.80
2023-06-29T02:35:20.502Z,28.90
2023-06-29T02:37:51.117Z,28.80
2023-06-29T02:40:21.201Z,28.90
2023-06-29T02:42:51.992Z,28.90
2023-06-29T02:45:22.641Z,28.90
2023-06-29T02:47:52.985Z,28.90
2023-06-29T02:50:23.272Z,29.10
2023-06-29T02:52:53.791Z,29.10
2023-06-29T02:55:25.890Z,29.30
2023-06-29T02:57:56.287Z,29.40
2023-06-29T03:00:26.650Z,29.50
2023-06-29T03:02:56.727Z,29.60
2023-06-29T03:05:26.613Z,29.60
2023-06-29T03:07:58.692Z,29.80
2023-06-29T03:10:28.840Z,30.00
2023-06-29T03:12:59.764Z,30.00
2023-06-29T03:15:29.733Z,30.00
2023-06-29T03:17:59.860Z,30.10
2023-06-29T03:20:30.337Z,30.30
2023-06-29T03:23:00.078Z,30.30
2023-06-29T03:25:30.595Z,30.50
2023-06-29T03:28:00.721Z,30.50
2023-06-29T03:30:30.912Z,30.50
2023-06-29T03:33:02.860Z,30.60
2023-06-29T03:35:36.266Z,30.50
2023-06-29T03:38:11.557Z,30.50
2023-06-29T03:40:42.033Z,30.50
2023-06-29T03:43:12.221Z,30.60
2023-06-29T03:45:42.691Z,30.90
2023-06-29T03:48:13.302Z,31.00
2023-06-29T03:50:43.310Z,30.90
2023-06-29T03:53:14.309Z,30.90
2023-06-29T03:55:44.128Z,31.10
2023-06-29T03:58:15.400Z,31.20
2023-06-29T04:00:45.762Z,31.30
2023-06-29T04:03:16.235Z,31.30
2023-06-29T04:05:46.528Z,31.30
2023-06-29T04:08:17.160Z,31.30
2023-06-29T04:10:46.950Z,31.50
2023-06-29T04:13:17.503Z,31.60
2023-06-29T04:15:47.712Z,31.60
2023-06-29T04:18:17.695Z,31.70
2023-06-29T04:20:48.350Z,31.80
2023-06-29T04:23:18.984Z,32.00
2023-06-29T04:25:48.838Z,32.00
2023-06-29T04:28:19.250Z,32.00
2023-06-29T04:30:49.283Z,31.70
2023-06-29T04:33:19.771Z,31.50
2023-06-29T04:35:50.155Z,31.60
2023-06-29T04:38:20.546Z,31.90
2023-06-29T04:40:50.362Z,32.10
2023-06-29T04:43:20.338Z,32.10
2023-06-29T04:45:50.128Z,31.90
2023-06-29T04:48:20.129Z,31.70
2023-06-29T04:50:50.031Z,31.60
2023-06-29T04:53:19.979Z,31.80
2023-06-29T04:55:49.758Z,31.80
2023-06-29T04:58:19.816Z,31.90
2023-06-29T05:00:49.573Z,31.70
2023-06-29T05:03:19.759Z,31.60
2023-06-29T05:05:49.926Z,31.70
2023-06-29T05:08:19.966Z,31.70
2023-06-29T05:10:49.827Z,31.60
2023-06-29T05:13:19.994Z,31.70
2023-06-29T05:15:50.819Z,31.80
2023-06-29T05:18:20.767Z,32.10
2023-06-29T05:20:51.239Z,32.30
2023-06-29T05:23:21.260Z,32.50
2023-06-29T05:25:51.284Z,32.90
2023-06-29T05:28:21.261Z,33.00
2023-06-29T05:30:51.243Z,33.20
2023-06-29T05:33:21.324Z,33.30
2023-06-29T05:35:51.176Z,33.50
2023-06-29T05:38:21.165Z,33.40
2023-06-29T05:40:50.956Z,33.50
2023-06-29T05:43:20.886Z,33.60
2023-06-29T05:45:50.735Z,33.70
2023-06-29T05:48:22.172Z,33.70
2023-06-29T05:50:52.073Z,34.00
2023-06-29T05:53:21.886Z,34.10
2023-06-29T05:55:51.758Z,34.30
2023-06-29T05:58:21.492Z,34.20
2023-06-29T06:00:51.662Z,34.20
2023-06-29T06:03:22.651Z,34.00
2023-06-29T06:05:53.270Z,33.70
2023-06-29T06:08:23.042Z,33.80
2023-06-29T06:10:53.462Z,33.80
2023-06-29T06:13:23.423Z,34.00
2023-06-29T06:15:55.723Z,34.30
2023-06-29T06:18:25.965Z,34.40
2023-06-29T06:20:56.133Z,34.00
2023-06-29T06:23:26.099Z,33.80
2023-06-29T06:25:55.742Z,33.60
2023-06-29T06:28:28.990Z,33.40
2023-06-29T06:30:59.462Z,32.90
2023-06-29T06:33:32.836Z,32.60
2023-06-29T06:36:03.241Z,32.40
2023-06-29T06:38:48.826Z,32.40
2023-06-29T06:41:20.452Z,32.30
2023-06-29T06:43:50.182Z,32.30
2023-06-29T06:46:20.244Z,32.10
2023-06-29T06:48:50.834Z,32.00
2023-06-29T06:51:21.028Z,32.00
2023-06-29T06:53:50.747Z,32.00
2023-06-29T06:56:20.839Z,32.00
2023-06-29T06:58:50.548Z,32.00
2023-06-29T07:01:21.771Z,32.10
2023-06-29T07:03:52.073Z,32.40
2023-06-29T07:06:21.961Z,32.60
2023-06-29T07:08:52.208Z,32.80
2023-06-29T07:11:21.963Z,33.10
2023-06-29T07:13:51.897Z,33.40
2023-06-29T07:16:21.710Z,33.70
2023-06-29T07:24:06.420Z,33.80
2023-06-29T07:24:35.634Z,33.80
2023-06-29T07:27:05.506Z,33.80
2023-06-29T07:29:36.223Z,34.00
2023-06-29T07:32:07.002Z,34.20
2023-06-29T07:34:37.041Z,34.30
2023-06-29T07:37:08.006Z,34.20
2023-06-29T07:39:39.207Z,34.30
2023-06-29T07:42:09.201Z,34.60
2023-06-29T07:44:38.923Z,34.70
2023-06-29T07:47:09.024Z,34.60
2023-06-29T07:49:38.765Z,34.80
2023-06-29T07:52:09.085Z,34.90
2023-06-29T07:54:38.793Z,35.00
2023-06-29T07:59:42.135Z,35.20
2023-06-29T08:02:11.864Z,35.20
2023-06-29T08:07:15.555Z,35.40
2023-06-29T08:09:45.954Z,35.30
2023-06-29T08:12:15.654Z,35.30
2023-06-29T08:14:46.329Z,35.20
2023-06-29T08:17:16.174Z,35.20
2023-06-29T08:19:46.117Z,35.40
2023-06-29T08:22:16.564Z,35.30
2023-06-29T08:24:46.972Z,35.30
2023-06-29T08:27:16.817Z,35.40
2023-06-29T08:29:46.823Z,35.50
2023-06-29T08:32:17.010Z,35.30
2023-06-29T08:34:47.076Z,35.40
2023-06-29T08:37:17.080Z,35.40
2023-06-29T08:39:47.052Z,35.50
2023-06-29T08:42:16.886Z,35.50
2023-06-29T08:44:46.952Z,35.40
2023-06-29T08:47:19.273Z,35.50
2023-06-29T08:49:51.057Z,35.40
2023-06-29T08:52:25.098Z,35.10
2023-06-29T08:54:56.119Z,35.00
2023-06-29T08:57:27.406Z,34.90
2023-06-29T08:59:57.809Z,35.00
2023-06-29T09:02:31.310Z,35.20
2023-06-29T09:05:02.095Z,35.40
2023-06-29T09:07:32.066Z,35.00
2023-06-29T09:10:02.261Z,34.10
2023-06-29T09:12:32.011Z,33.40
2023-06-29T09:15:02.195Z,33.00
2023-06-29T09:17:36.503Z,32.80
2023-06-29T09:20:14.435Z,32.80
2023-06-29T09:22:45.595Z,32.70
2023-06-29T09:25:27.745Z,32.60
2023-06-29T09:28:10.214Z,32.60
2023-06-29T09:30:42.453Z,32.70
2023-06-29T09:33:14.592Z,32.90
2023-06-29T09:35:49.471Z,33.00
2023-06-29T09:38:20.010Z,33.10
2023-06-29T09:40:54.969Z,33.20
2023-06-29T09:43:29.852Z,33.20
2023-06-29T09:46:10.451Z,33.10
2023-06-29T09:51:24.262Z,32.90
2023-06-29T09:53:54.763Z,32.80
2023-06-29T09:56:24.614Z,32.70
2023-06-29T09:58:54.743Z,32.70
2023-06-29T10:01:24.618Z,32.60
2023-06-29T10:03:54.990Z,32.40
2023-06-29T10:06:33.752Z,32.40
2023-06-29T10:09:05.074Z,32.50
2023-06-29T10:11:38.243Z,32.50
2023-06-29T10:14:11.055Z,32.40
2023-06-29T10:16:45.346Z,32.50
2023-06-29T10:19:24.020Z,32.50
2023-06-29T10:22:00.506Z,32.50
2023-06-29T10:24:36.961Z,32.40
2023-06-29T10:27:10.667Z,32.50
2023-06-29T10:29:49.115Z,32.40
2023-06-29T10:32:40.037Z,32.30
2023-06-29T10:35:17.456Z,32.30
2023-06-29T10:37:50.387Z,32.30
2023-06-29T10:40:22.216Z,32.20
2023-06-29T10:42:58.084Z,32.10
2023-06-29T10:45:33.991Z,32.10
2023-06-29T10:48:06.064Z,32.10
2023-06-29T10:50:45.093Z,32.10
2023-06-29T10:53:16.992Z,32.10
2023-06-29T10:55:54.907Z,32.10
2023-06-29T10:58:39.513Z,32.00
2023-06-29T11:01:09.738Z,31.90
2023-06-29T11:03:39.928Z,31.80
2023-06-29T11:06:10.292Z,31.70
2023-06-29T11:08:40.150Z,31.70
2023-06-29T11:11:17.119Z,31.60
2023-06-29T11:13:48.083Z,31.70
2023-06-29T11:16:18.340Z,31.60
2023-06-29T11:18:52.496Z,31.50
2023-06-29T11:21:23.904Z,31.40
2023-06-29T11:23:54.452Z,31.50
2023-06-29T11:26:28.179Z,31.50
2023-06-29T11:28:58.538Z,31.40
2023-06-29T11:31:28.549Z,31.50
2023-06-29T11:33:59.427Z,31.50
2023-06-29T11:36:30.892Z,31.50
2023-06-29T11:39:11.905Z,31.40
2023-06-29T11:41:43.524Z,31.30
2023-06-29T11:44:15.476Z,31.30
2023-06-29T11:46:54.911Z,31.30
2023-06-29T11:49:29.968Z,31.30
2023-06-29T11:51:59.941Z,31.30
2023-06-29T11:54:32.593Z,31.30
2023-06-29T11:57:03.100Z,31.30
2023-06-29T11:59:34.359Z,31.20
2023-06-29T12:02:06.321Z,31.20
2023-06-29T12:04:36.528Z,31.20
2023-06-29T12:07:06.746Z,31.10
2023-06-29T12:09:40.345Z,31.00
2023-06-29T12:12:12.080Z,31.10
2023-06-29T12:14:42.312Z,31.20
2023-06-29T12:20:09.572Z,31.10
2023-06-29T12:22:41.040Z,31.10
2023-06-29T12:25:19.914Z,31.20
2023-06-29T12:27:52.317Z,31.10
2023-06-29T12:30:26.229Z,31.10
2023-06-29T12:32:57.324Z,31.00
2023-06-29T12:35:27.576Z,30.80
2023-06-29T12:37:57.743Z,30.90
2023-06-29T12:40:28.190Z,30.80
2023-06-29T12:42:58.421Z,30.70
2023-06-29T12:45:28.536Z,30.60
2023-06-29T12:47:58.489Z,30.60
2023-06-29T12:50:28.834Z,30.70
2023-06-29T12:52:58.696Z,30.60
2023-06-29T12:55:29.458Z,30.60
2023-06-29T12:57:59.345Z,30.50
2023-06-29T13:00:29.687Z,30.50
2023-06-29T13:03:00.323Z,30.50
2023-06-29T13:05:30.666Z,30.50
2023-06-29T13:08:00.583Z,30.50
2023-06-29T13:10:32.884Z,30.60
2023-06-29T13:13:05.043Z,30.60
2023-06-29T13:15:35.060Z,30.50
2023-06-29T13:18:04.984Z,30.40
2023-06-29T13:20:35.605Z,30.30
2023-06-29T13:23:05.357Z,30.20
2023-06-29T13:25:35.368Z,30.20
2023-06-29T13:28:05.725Z,30.10
2023-06-29T13:30:36.212Z,30.10
2023-06-29T13:33:06.397Z,30.00
2023-06-29T13:35:36.486Z,30.00
2023-06-29T13:38:06.627Z,30.10
2023-06-29T13:40:36.900Z,30.10
2023-06-29T13:43:07.001Z,30.10
2023-06-29T13:45:37.352Z,30.10
2023-06-29T13:48:07.647Z,30.00
2023-06-29T13:53:13.069Z,30.00
2023-06-29T13:55:47.911Z,29.90
2023-06-29T13:58:18.834Z,29.60
2023-06-29T14:00:49.049Z,29.40
2023-06-29T14:03:19.583Z,29.50
2023-06-29T14:05:50.105Z,29.60
2023-06-29T14:08:20.153Z,29.70
2023-06-29T14:10:50.604Z,29.60
2023-06-29T14:13:20.673Z,29.70
2023-06-29T14:15:51.030Z,29.70
2023-06-29T14:18:20.972Z,29.70
2023-06-29T14:20:52.711Z,29.80
2023-06-29T14:23:26.854Z,29.80
2023-06-29T14:25:56.955Z,29.90
2023-06-29T14:28:27.507Z,29.70
2023-06-29T14:30:57.607Z,29.70
2023-06-29T14:33:29.181Z,29.80
2023-06-29T14:36:00.229Z,29.70
2023-06-29T14:38:32.728Z,29.70
2023-06-29T14:41:04.799Z,29.70
2023-06-29T14:43:35.161Z,29.70
2023-06-29T14:46:05.293Z,29.60
2023-06-29T14:48:36.608Z,29.60
2023-06-29T14:51:11.041Z,29.70
2023-06-29T14:53:41.489Z,29.70
2023-06-29T14:56:12.502Z,29.70
2023-06-29T14:58:43.052Z,29.80
2023-06-29T15:01:13.180Z,29.70
2023-06-29T15:03:44.215Z,29.70
2023-06-29T15:06:14.349Z,29.80
2023-06-29T15:08:44.097Z,29.80
2023-06-29T15:11:14.313Z,29.70
2023-06-29T15:13:44.153Z,29.60
2023-06-29T15:16:14.237Z,29.60
2023-06-29T15:18:54.908Z,29.50
2023-06-29T15:21:29.758Z,29.60
2023-06-29T15:24:02.490Z,29.50
2023-06-29T15:26:32.589Z,29.50
2023-06-29T15:29:02.774Z,29.40
2023-06-29T15:31:32.856Z,29.60
2023-06-29T15:34:02.749Z,29.60
2023-06-29T15:36:33.807Z,29.50
2023-06-29T15:39:05.060Z,29.50
2023-06-29T15:41:35.302Z,29.40
2023-06-29T15:44:05.303Z,29.20
2023-06-29T15:46:36.513Z,29.20
2023-06-29T15:49:06.889Z,29.20
2023-06-29T15:51:36.715Z,29.30
2023-06-29T15:54:06.724Z,29.20
2023-06-29T15:56:36.611Z,29.20
2023-06-29T15:59:06.852Z,29.20
2023-06-29T16:01:37.101Z,29.10
2023-06-29T16:04:07.723Z,29.10
2023-06-29T16:06:38.165Z,29.10
2023-06-29T16:09:08.067Z,29.10
2023-06-29T16:11:38.271Z,29.10
2023-06-29T16:14:08.147Z,29.10
2023-06-29T16:16:38.296Z,29.10
2023-06-29T16:19:08.357Z,29.10
2023-06-29T16:21:38.486Z,29.10
2023-06-29T16:24:08.393Z,29.10
2023-06-29T16:26:38.559Z,29.10
2023-06-29T16:29:09.040Z,29.10
2023-06-29T16:31:40.509Z,29.00
2023-06-29T16:34:12.389Z,29.00
2023-06-29T16:36:42.336Z,28.90
2023-06-29T16:39:12.800Z,28.90
2023-06-29T16:41:43.764Z,28.80
2023-06-29T16:44:13.942Z,28.80
2023-06-29T16:46:43.866Z,28.80
2023-06-29T16:49:13.813Z,28.80
2023-06-29T16:51:43.596Z,28.80
2023-06-29T16:54:13.525Z,28.80
2023-06-29T16:56:43.419Z,28.90
2023-06-29T16:59:13.798Z,28.80
2023-06-29T17:01:43.706Z,28.80
2023-06-29T17:04:13.564Z,28.80
2023-06-29T17:06:43.589Z,28.80
2023-06-29T17:09:13.467Z,28.90
2023-06-29T17:11:43.498Z,28.90
2023-06-29T17:14:14.424Z,28.90
2023-06-29T17:16:44.688Z,28.90
2023-06-29T17:19:14.426Z,28.90
2023-06-29T17:21:44.422Z,28.90
2023-06-29T17:24:14.209Z,28.80
2023-06-29T17:26:44.343Z,28.70
2023-06-29T17:29:14.759Z,28.80
2023-06-29T17:31:44.878Z,28.80
2023-06-29T17:34:14.666Z,28.90
2023-06-29T17:36:44.735Z,28.70
2023-06-29T17:39:14.682Z,28.60
2023-06-29T17:41:44.663Z,28.60
2023-06-29T17:44:14.486Z,28.60
2023-06-29T17:46:44.794Z,28.70
2023-06-29T17:49:14.841Z,28.60
2023-06-29T17:51:45.350Z,28.60
2023-06-29T17:54:15.099Z,28.60
2023-06-29T17:56:44.961Z,28.50
2023-06-29T17:59:14.732Z,28.60
2023-06-29T18:01:44.922Z,28.60
2023-06-29T18:04:14.825Z,28.60
2023-06-29T18:06:44.846Z,28.50
2023-06-29T18:09:16.427Z,28.50
2023-06-29T18:11:46.590Z,28.60
2023-06-29T18:14:16.395Z,28.60
2023-06-29T18:16:46.884Z,28.60
2023-06-29T18:19:16.864Z,28.50
2023-06-29T18:21:47.481Z,28.50
2023-06-29T18:24:18.132Z,28.50
2023-06-29T18:26:50.105Z,28.50
2023-06-29T18:29:22.103Z,28.50
2023-06-29T18:31:52.263Z,28.50
2023-06-29T18:34:21.979Z,28.50
2023-06-29T18:36:51.925Z,28.20
2023-06-29T18:39:22.086Z,28.30
2023-06-29T18:41:52.017Z,28.40
2023-06-29T18:44:21.894Z,28.30
2023-06-29T18:47:17.694Z,28.30
2023-06-29T18:49:52.739Z,28.30
2023-06-29T18:52:23.345Z,28.20
2023-06-29T18:54:58.336Z,28.20
2023-06-29T18:57:28.496Z,28.30
2023-06-29T18:59:58.234Z,28.30
2023-06-29T19:02:28.411Z,28.20
2023-06-29T19:04:58.211Z,28.20
2023-06-29T19:07:28.360Z,28.30
2023-06-29T19:09:58.096Z,28.20
2023-06-29T19:12:28.231Z,28.10
2023-06-29T19:14:58.104Z,28.10
2023-06-29T19:17:30.488Z,28.10
2023-06-29T19:20:00.510Z,28.00
2023-06-29T19:22:30.236Z,28.00
2023-06-29T19:25:00.578Z,28.00
2023-06-29T19:27:31.262Z,28.10
2023-06-29T19:30:01.741Z,28.00
2023-06-29T19:32:31.783Z,28.00
2023-06-29T19:35:01.610Z,28.00
2023-06-29T19:37:32.078Z,28.00
2023-06-29T19:40:01.877Z,28.10
2023-06-29T19:42:32.133Z,28.00
2023-06-29T19:45:01.991Z,28.00
2023-06-29T19:47:32.114Z,27.90
2023-06-29T19:50:02.068Z,27.90
2023-06-29T19:52:32.512Z,27.70
2023-06-29T19:55:02.612Z,27.70
2023-06-29T19:57:32.667Z,27.90
2023-06-29T20:00:02.480Z,27.90
2023-06-29T20:02:52.304Z,27.90
2023-06-29T20:05:22.445Z,27.90
2023-06-29T20:07:53.172Z,27.80
2023-06-29T20:10:23.426Z,27.80
2023-06-29T20:12:53.234Z,27.80
2023-06-29T20:15:23.184Z,27.80
2023-06-29T20:17:53.101Z,27.90
2023-06-29T20:20:23.463Z,27.80
2023-06-29T20:22:53.742Z,27.80
2023-06-29T20:25:23.723Z,27.90
2023-06-29T20:27:53.644Z,27.80
2023-06-29T20:30:24.755Z,27.80
2023-06-29T20:32:54.828Z,27.70
2023-06-29T20:35:24.744Z,27.60
2023-06-29T20:37:54.937Z,27.70
2023-06-29T20:40:25.917Z,27.60
2023-06-29T20:42:56.028Z,27.60
2023-06-29T20:45:27.241Z,27.60
2023-06-29T20:47:57.452Z,27.60
2023-06-29T20:50:27.409Z,27.60
2023-06-29T20:52:57.431Z,27.70
2023-06-29T20:55:27.298Z,27.60
2023-06-29T20:57:59.011Z,27.60
2023-06-29T21:00:29.177Z,27.60
2023-06-29T21:02:59.173Z,27.50
2023-06-29T21:05:29.369Z,27.50
2023-06-29T21:07:59.324Z,27.50
2023-06-29T21:10:29.348Z,27.60
2023-06-29T21:12:59.386Z,27.50
2023-06-29T21:15:29.778Z,27.60
2023-06-29T21:17:59.760Z,27.60
2023-06-29T21:20:30.085Z,27.70
2023-06-29T21:23:01.002Z,27.60
2023-06-29T21:25:31.666Z,27.60
2023-06-29T21:28:01.868Z,27.50
2023-06-29T21:30:33.345Z,27.50
2023-06-29T21:33:03.863Z,27.50
2023-06-29T21:35:34.193Z,27.40
2023-06-29T21:38:04.600Z,27.40
2023-06-29T21:40:36.566Z,27.40
2023-06-29T21:43:06.626Z,27.30
2023-06-29T21:45:36.393Z,27.40
2023-06-29T21:48:06.742Z,27.40
2023-06-29T21:50:37.055Z,27.30
2023-06-29T21:53:06.876Z,27.40
2023-06-29T21:55:36.872Z,27.40
2023-06-29T21:58:06.556Z,27.40
2023-06-29T22:00:36.759Z,27.40
2023-06-29T22:03:06.731Z,27.40
2023-06-29T22:05:37.007Z,27.40
2023-06-29T22:08:06.953Z,27.30
2023-06-29T22:10:37.310Z,27.20
2023-06-29T22:13:07.003Z,27.30
2023-06-29T22:15:39.633Z,27.30
2023-06-29T22:18:12.232Z,27.30
2023-06-29T22:20:43.193Z,27.20
2023-06-29T22:23:13.994Z,27.20
2023-06-29T22:25:45.322Z,27.20
2023-06-29T22:28:15.537Z,27.10
2023-06-29T22:30:46.093Z,27.20
2023-06-29T22:33:16.340Z,27.10
2023-06-29T22:35:46.964Z,27.10
2023-06-29T22:38:17.261Z,27.10
2023-06-29T22:40:47.246Z,27.10
2023-06-29T22:43:17.187Z,27.10
2023-06-29T22:45:47.494Z,27.10
2023-06-29T22:48:17.705Z,27.00
2023-06-29T22:50:47.667Z,27.10
2023-06-29T22:53:17.678Z,27.10
2023-06-29T22:55:47.716Z,27.10
2023-06-29T22:58:29.466Z,27.10
2023-06-29T23:00:59.424Z,27.00
2023-06-29T23:03:29.369Z,27.10
2023-06-29T23:05:59.448Z,27.10
2023-06-29T23:08:29.442Z,27.20
2023-06-29T23:10:59.476Z,27.20
2023-06-29T23:13:29.154Z,27.20
2023-06-29T23:16:02.382Z,27.20
2023-06-29T23:18:32.396Z,27.20
2023-06-29T23:21:05.044Z,27.10
2023-06-29T23:23:35.109Z,27.10
2023-06-29T23:26:06.200Z,27.10
2023-06-29T23:28:38.358Z,27.10
2023-06-29T23:31:09.690Z,27.00
2023-06-29T23:33:40.373Z,27.00
2023-06-29T23:36:10.672Z,27.00
2023-06-29T23:38:40.554Z,26.90
2023-06-29T23:41:10.429Z,26.90
2023-06-29T23:43:41.257Z,27.00
2023-06-29T23:46:14.644Z,27.10
2023-06-29T23:48:44.807Z,27.10
2023-06-29T23:51:14.471Z,27.20
2023-06-29T23:53:44.270Z,27.20
2023-06-29T23:56:14.888Z,27.30
2023-06-29T23:58:44.926Z,27.30
